sensor_id;sensor_type;location;lat;lon;timestamp;temperature;humidity
19496;DHT22;9888;48.606;9.630;2023-03-01T00:01:38;-2.90;99.90
19496;DHT22;9888;48.606;9.630;2023-03-01T00:04:09;-2.90;99.90
19496;DHT22;9888;48.606;9.630;2023-03-01T00:06:36;-2.90;99.90
19496;DHT22;9888;48.606;9.630;2023-03-01T00:09:05;-2.90;99.90
19496;DHT22;9888;48.606;9.630;2023-03-01T00:11:32;-2.90;99.90
19496;DHT22;9888;48.606;9.630;2023-03-01T00:14:01;-2.90;99.90
19496;DHT22;9888;48.606;9.630;2023-03-01T00:16:40;-2.90;99.90
19496;DHT22;9888;48.606;9.630;2023-03-01T00:22:14;-3.00;99.90
19496;DHT22;9888;48.606;9.630;2023-03-01T00:24:41;-3.00;99.90
19496;DHT22;9888;48.606;9.630;2023-03-01T00:27:08;-3.10;99.90
19496;DHT22;9888;48.606;9.630;2023-03-01T00:29:36;-3.20;99.90
19496;DHT22;9888;48.606;9.630;2023-03-01T00:32:04;-3.20;99.90
19496;DHT22;9888;48.606;9.630;2023-03-01T00:34:36;-3.30;99.90
19496;DHT22;9888;48.606;9.630;2023-03-01T00:37:03;-3.40;99.90
19496;DHT22;9888;48.606;9.630;2023-03-01T00:39:33;-3.40;99.90
19496;DHT22;9888;48.606;9.630;2023-03-01T00:42:03;-3.50;99.90
19496;DHT22;9888;48.606;9.630;2023-03-01T00:44:37;-3.60;99.90
19496;DHT22;9888;48.606;9.630;2023-03-01T00:47:07;-3.60;99.90
19496;DHT22;9888;48.606;9.630;2023-03-01T00:52:44;-3.80;99.90
19496;DHT22;9888;48.606;9.630;2023-03-01T00:55:12;-3.90;99.90
19496;DHT22;9888;48.606;9.630;2023-03-01T00:57:43;-3.90;99.90
19496;DHT22;9888;48.606;9.630;2023-03-01T01:00:16;-3.90;99.90
19496;DHT22;9888;48.606;9.630;2023-03-01T01:02:45;-4.00;99.90
19496;DHT22;9888;48.606;9.630;2023-03-01T01:05:14;-3.90;99.90
19496;DHT22;9888;48.606;9.630;2023-03-01T01:07:48;-3.90;99.90
19496;DHT22;9888;48.606;9.630;2023-03-01T01:10:43;-3.80;99.90
19496;DHT22;9888;48.606;9.630;2023-03-01T01:13:11;-3.60;99.90
19496;DHT22;9888;48.606;9.630;2023-03-01T01:15:39;-3.50;99.90
19496;DHT22;9888;48.606;9.630;2023-03-01T01:18:06;-3.40;99.90
19496;DHT22;9888;48.606;9.630;2023-03-01T01:20:36;-3.40;99.90
19496;DHT22;9888;48.606;9.630;2023-03-01T01:23:06;-3.30;99.90
19496;DHT22;9888;48.606;9.630;2023-03-01T01:25:36;-3.20;99.90
19496;DHT22;9888;48.606;9.630;2023-03-01T01:28:03;-3.10;99.90
19496;DHT22;9888;48.606;9.630;2023-03-01T01:30:31;-3.10;99.90
19496;DHT22;9888;48.606;9.630;2023-03-01T01:32:58;-3.00;99.90
19496;DHT22;9888;48.606;9.630;2023-03-01T01:35:27;-2.90;99.90
19496;DHT22;9888;48.606;9.630;2023-03-01T01:37:54;-2.80;99.90
19496;DHT22;9888;48.606;9.630;2023-03-01T01:40:22;-2.70;99.90
19496;DHT22;9888;48.606;9.630;2023-03-01T01:42:49;-2.60;99.90
19496;DHT22;9888;48.606;9.630;2023-03-01T01:45:34;-2.50;99.90
19496;DHT22;9888;48.606;9.630;2023-03-01T01:48:18;-2.30;99.90
19496;DHT22;9888;48.606;9.630;2023-03-01T01:50:53;-2.20;99.90
19496;DHT22;9888;48.606;9.630;2023-03-01T01:53:22;-2.10;99.90
19496;DHT22;9888;48.606;9.630;2023-03-01T01:55:57;-2.00;99.90
19496;DHT22;9888;48.606;9.630;2023-03-01T01:58:29;-1.90;99.90
19496;DHT22;9888;48.606;9.630;2023-03-01T02:01:00;-1.80;99.90
19496;DHT22;9888;48.606;9.630;2023-03-01T02:03:30;-1.80;99.90
19496;DHT22;9888;48.606;9.630;2023-03-01T02:08:38;-1.80;99.90
19496;DHT22;9888;48.606;9.630;2023-03-01T02:11:06;-1.80;99.90
19496;DHT22;9888;48.606;9.630;2023-03-01T02:13:34;-1.80;99.90
19496;DHT22;9888;48.606;9.630;2023-03-01T02:16:09;-1.70;99.90
19496;DHT22;9888;48.606;9.630;2023-03-01T02:18:38;-1.70;99.90
19496;DHT22;9888;48.606;9.630;2023-03-01T02:21:37;-1.70;99.90
19496;DHT22;9888;48.606;9.630;2023-03-01T02:24:31;-1.60;99.90
19496;DHT22;9888;48.606;9.630;2023-03-01T02:27:03;-1.60;99.90
19496;DHT22;9888;48.606;9.630;2023-03-01T02:29:32;-1.60;99.90
19496;DHT22;9888;48.606;9.630;2023-03-01T02:32:01;-1.60;99.90
19496;DHT22;9888;48.606;9.630;2023-03-01T02:34:31;-1.60;99.90
19496;DHT22;9888;48.606;9.630;2023-03-01T02:37:00;-1.60;99.90
19496;DHT22;9888;48.606;9.630;2023-03-01T02:39:42;-1.60;99.90
19496;DHT22;9888;48.606;9.630;2023-03-01T02:42:14;-1.60;99.90
19496;DHT22;9888;48.606;9.630;2023-03-01T02:44:42;-1.60;99.90
19496;DHT22;9888;48.606;9.630;2023-03-01T02:47:09;-1.50;99.90
19496;DHT22;9888;48.606;9.630;2023-03-01T02:49:37;-1.50;99.90
19496;DHT22;9888;48.606;9.630;2023-03-01T02:55:17;-1.50;99.90
19496;DHT22;9888;48.606;9.630;2023-03-01T02:57:46;-1.50;99.90
19496;DHT22;9888;48.606;9.630;2023-03-01T03:00:23;-1.50;99.90
19496;DHT22;9888;48.606;9.630;2023-03-01T03:02:59;-1.50;99.90
19496;DHT22;9888;48.606;9.630;2023-03-01T03:05:29;-1.40;99.90
19496;DHT22;9888;48.606;9.630;2023-03-01T03:07:58;-1.40;99.90
19496;DHT22;9888;48.606;9.630;2023-03-01T03:10:33;-1.40;99.90
19496;DHT22;9888;48.606;9.630;2023-03-01T03:13:10;-1.50;99.90
19496;DHT22;9888;48.606;9.630;2023-03-01T03:15:45;-1.50;99.90
19496;DHT22;9888;48.606;9.630;2023-03-01T03:18:15;-1.50;99.90
19496;DHT22;9888;48.606;9.630;2023-03-01T03:20:44;-1.50;99.90
19496;DHT22;9888;48.606;9.630;2023-03-01T03:23:12;-1.40;99.90
19496;DHT22;9888;48.606;9.630;2023-03-01T03:25:40;-1.40;99.90
19496;DHT22;9888;48.606;9.630;2023-03-01T03:28:09;-1.40;99.90
19496;DHT22;9888;48.606;9.630;2023-03-01T03:30:42;-1.40;99.90
19496;DHT22;9888;48.606;9.630;2023-03-01T03:33:12;-1.30;99.90
19496;DHT22;9888;48.606;9.630;2023-03-01T03:35:44;-1.30;99.90
19496;DHT22;9888;48.606;9.630;2023-03-01T03:38:15;-1.30;99.90
19496;DHT22;9888;48.606;9.630;2023-03-01T03:40:48;-1.30;99.90
19496;DHT22;9888;48.606;9.630;2023-03-01T03:43:23;-1.40;99.90
19496;DHT22;9888;48.606;9.630;2023-03-01T03:45:51;-1.40;99.90
19496;DHT22;9888;48.606;9.630;2023-03-01T03:48:20;-1.30;99.90
19496;DHT22;9888;48.606;9.630;2023-03-01T03:50:55;-1.30;99.90
19496;DHT22;9888;48.606;9.630;2023-03-01T03:53:24;-1.30;99.90
19496;DHT22;9888;48.606;9.630;2023-03-01T03:55:52;-1.20;99.90
19496;DHT22;9888;48.606;9.630;2023-03-01T03:58:22;-1.20;99.90
19496;DHT22;9888;48.606;9.630;2023-03-01T04:00:52;-1.20;99.90
19496;DHT22;9888;48.606;9.630;2023-03-01T04:03:22;-1.20;99.90
19496;DHT22;9888;48.606;9.630;2023-03-01T04:05:51;-1.20;99.90
19496;DHT22;9888;48.606;9.630;2023-03-01T04:08:20;-1.20;99.90
19496;DHT22;9888;48.606;9.630;2023-03-01T04:10:50;-1.20;99.90
19496;DHT22;9888;48.606;9.630;2023-03-01T04:13:20;-1.20;99.90
19496;DHT22;9888;48.606;9.630;2023-03-01T04:15:51;-1.20;99.90
19496;DHT22;9888;48.606;9.630;2023-03-01T04:18:19;-1.20;99.90
19496;DHT22;9888;48.606;9.630;2023-03-01T04:20:47;-1.20;99.90
19496;DHT22;9888;48.606;9.630;2023-03-01T04:23:20;-1.20;99.90
19496;DHT22;9888;48.606;9.630;2023-03-01T04:25:54;-1.20;99.90
19496;DHT22;9888;48.606;9.630;2023-03-01T04:28:30;-1.20;99.90
19496;DHT22;9888;48.606;9.630;2023-03-01T04:31:01;-1.20;99.90
19496;DHT22;9888;48.606;9.630;2023-03-01T04:33:46;-1.20;99.90
19496;DHT22;9888;48.606;9.630;2023-03-01T04:36:14;-1.20;99.90
19496;DHT22;9888;48.606;9.630;2023-03-01T04:38:43;-1.20;99.90
19496;DHT22;9888;48.606;9.630;2023-03-01T04:41:14;-1.10;99.90
19496;DHT22;9888;48.606;9.630;2023-03-01T04:43:41;-1.20;99.90
19496;DHT22;9888;48.606;9.630;2023-03-01T04:46:11;-1.10;99.90
19496;DHT22;9888;48.606;9.630;2023-03-01T04:48:40;-1.10;99.90
19496;DHT22;9888;48.606;9.630;2023-03-01T04:51:11;-1.10;99.90
19496;DHT22;9888;48.606;9.630;2023-03-01T04:53:42;-1.00;99.90
19496;DHT22;9888;48.606;9.630;2023-03-01T04:56:12;-1.10;99.90
19496;DHT22;9888;48.606;9.630;2023-03-01T04:58:45;-1.10;99.90
19496;DHT22;9888;48.606;9.630;2023-03-01T05:01:14;-1.10;99.90
19496;DHT22;9888;48.606;9.630;2023-03-01T05:03:46;-1.10;99.90
19496;DHT22;9888;48.606;9.630;2023-03-01T05:06:33;-1.10;99.90
19496;DHT22;9888;48.606;9.630;2023-03-01T05:09:01;-1.10;99.90
19496;DHT22;9888;48.606;9.630;2023-03-01T05:11:29;-1.10;99.90
19496;DHT22;9888;48.606;9.630;2023-03-01T05:14:07;-1.10;99.90
19496;DHT22;9888;48.606;9.630;2023-03-01T05:16:36;-1.10;99.90
19496;DHT22;9888;48.606;9.630;2023-03-01T05:19:04;-1.10;99.90
19496;DHT22;9888;48.606;9.630;2023-03-01T05:21:40;-1.10;99.90
19496;DHT22;9888;48.606;9.630;2023-03-01T05:24:26;-1.10;99.90
19496;DHT22;9888;48.606;9.630;2023-03-01T05:26:54;-1.10;99.90
19496;DHT22;9888;48.606;9.630;2023-03-01T05:29:25;-1.00;99.90
19496;DHT22;9888;48.606;9.630;2023-03-01T05:31:54;-1.00;99.90
19496;DHT22;9888;48.606;9.630;2023-03-01T05:34:33;-1.00;99.90
19496;DHT22;9888;48.606;9.630;2023-03-01T05:37:02;-1.00;99.90
19496;DHT22;9888;48.606;9.630;2023-03-01T05:39:30;-1.00;99.90
19496;DHT22;9888;48.606;9.630;2023-03-01T05:41:59;-1.00;99.90
19496;DHT22;9888;48.606;9.630;2023-03-01T05:44:29;-1.10;99.90
19496;DHT22;9888;48.606;9.630;2023-03-01T05:46:56;-1.10;99.90
19496;DHT22;9888;48.606;9.630;2023-03-01T05:49:24;-1.20;99.90
19496;DHT22;9888;48.606;9.630;2023-03-01T05:51:53;-1.40;99.90
19496;DHT22;9888;48.606;9.630;2023-03-01T05:54:21;-1.60;99.90
19496;DHT22;9888;48.606;9.630;2023-03-01T05:56:49;-1.70;99.90
19496;DHT22;9888;48.606;9.630;2023-03-01T05:59:15;-1.90;99.90
19496;DHT22;9888;48.606;9.630;2023-03-01T06:01:47;-2.00;99.90
19496;DHT22;9888;48.606;9.630;2023-03-01T06:04:13;-2.20;99.90
19496;DHT22;9888;48.606;9.630;2023-03-01T06:06:40;-2.20;99.90
19496;DHT22;9888;48.606;9.630;2023-03-01T06:09:07;-2.40;99.90
19496;DHT22;9888;48.606;9.630;2023-03-01T06:11:36;-2.40;99.90
19496;DHT22;9888;48.606;9.630;2023-03-01T06:14:05;-2.40;99.90
19496;DHT22;9888;48.606;9.630;2023-03-01T06:16:35;-2.40;99.90
19496;DHT22;9888;48.606;9.630;2023-03-01T06:19:03;-2.30;99.90
19496;DHT22;9888;48.606;9.630;2023-03-01T06:21:31;-2.30;99.90
19496;DHT22;9888;48.606;9.630;2023-03-01T06:24:03;-2.20;99.90
19496;DHT22;9888;48.606;9.630;2023-03-01T06:26:34;-2.20;99.90
19496;DHT22;9888;48.606;9.630;2023-03-01T06:29:02;-2.20;99.90
19496;DHT22;9888;48.606;9.630;2023-03-01T06:31:33;-2.30;99.90
19496;DHT22;9888;48.606;9.630;2023-03-01T06:34:00;-2.20;99.90
19496;DHT22;9888;48.606;9.630;2023-03-01T06:36:27;-2.30;99.90
19496;DHT22;9888;48.606;9.630;2023-03-01T06:38:54;-2.20;99.90
19496;DHT22;9888;48.606;9.630;2023-03-01T06:41:20;-2.20;99.90
19496;DHT22;9888;48.606;9.630;2023-03-01T06:43:55;-2.30;99.90
19496;DHT22;9888;48.606;9.630;2023-03-01T06:46:26;-2.30;99.90
19496;DHT22;9888;48.606;9.630;2023-03-01T06:48:54;-2.20;99.90
19496;DHT22;9888;48.606;9.630;2023-03-01T06:51:49;-2.10;99.90
19496;DHT22;9888;48.606;9.630;2023-03-01T06:54:18;-2.10;99.90
19496;DHT22;9888;48.606;9.630;2023-03-01T06:56:50;-2.00;99.90
19496;DHT22;9888;48.606;9.630;2023-03-01T06:59:18;-1.90;99.90
19496;DHT22;9888;48.606;9.630;2023-03-01T07:01:45;-1.80;99.90
19496;DHT22;9888;48.606;9.630;2023-03-01T07:04:13;-1.70;99.90
19496;DHT22;9888;48.606;9.630;2023-03-01T07:06:40;-1.70;99.90
19496;DHT22;9888;48.606;9.630;2023-03-01T07:09:07;-1.60;99.90
19496;DHT22;9888;48.606;9.630;2023-03-01T07:11:36;-1.50;99.90
19496;DHT22;9888;48.606;9.630;2023-03-01T07:14:05;-1.50;99.90
19496;DHT22;9888;48.606;9.630;2023-03-01T07:16:34;-1.30;99.90
19496;DHT22;9888;48.606;9.630;2023-03-01T07:19:00;-1.30;99.90
19496;DHT22;9888;48.606;9.630;2023-03-01T07:21:50;-1.10;99.90
19496;DHT22;9888;48.606;9.630;2023-03-01T07:24:18;-1.00;99.90
19496;DHT22;9888;48.606;9.630;2023-03-01T07:26:51;-0.90;99.90
19496;DHT22;9888;48.606;9.630;2023-03-01T07:29:20;-0.70;99.90
19496;DHT22;9888;48.606;9.630;2023-03-01T07:35:08;-0.50;99.90
19496;DHT22;9888;48.606;9.630;2023-03-01T07:37:35;-0.40;99.90
19496;DHT22;9888;48.606;9.630;2023-03-01T07:40:02;-0.30;99.90
19496;DHT22;9888;48.606;9.630;2023-03-01T07:42:29;-0.30;99.90
19496;DHT22;9888;48.606;9.630;2023-03-01T07:45:11;-0.10;99.90
19496;DHT22;9888;48.606;9.630;2023-03-01T07:47:40;0.00;99.90
19496;DHT22;9888;48.606;9.630;2023-03-01T07:50:08;0.20;99.90
19496;DHT22;9888;48.606;9.630;2023-03-01T07:52:40;0.30;99.90
19496;DHT22;9888;48.606;9.630;2023-03-01T07:55:07;0.50;99.90
19496;DHT22;9888;48.606;9.630;2023-03-01T07:57:40;0.70;99.90
19496;DHT22;9888;48.606;9.630;2023-03-01T08:00:09;1.00;99.90
19496;DHT22;9888;48.606;9.630;2023-03-01T08:02:39;1.10;99.90
19496;DHT22;9888;48.606;9.630;2023-03-01T08:05:09;1.40;99.90
19496;DHT22;9888;48.606;9.630;2023-03-01T08:07:39;1.40;99.90
19496;DHT22;9888;48.606;9.630;2023-03-01T08:10:07;1.60;99.90
19496;DHT22;9888;48.606;9.630;2023-03-01T08:12:34;1.80;99.90
19496;DHT22;9888;48.606;9.630;2023-03-01T08:15:01;2.20;99.90
19496;DHT22;9888;48.606;9.630;2023-03-01T08:17:28;2.40;99.90
19496;DHT22;9888;48.606;9.630;2023-03-01T08:19:55;2.40;99.90
19496;DHT22;9888;48.606;9.630;2023-03-01T08:22:23;2.70;99.90
19496;DHT22;9888;48.606;9.630;2023-03-01T08:24:51;3.50;99.90
19496;DHT22;9888;48.606;9.630;2023-03-01T08:27:18;4.00;99.90
19496;DHT22;9888;48.606;9.630;2023-03-01T08:29:45;4.40;99.90
19496;DHT22;9888;48.606;9.630;2023-03-01T08:32:11;4.20;99.90
19496;DHT22;9888;48.606;9.630;2023-03-01T08:34:42;4.50;99.90
19496;DHT22;9888;48.606;9.630;2023-03-01T08:37:09;5.20;99.90
19496;DHT22;9888;48.606;9.630;2023-03-01T08:39:35;6.10;99.90
19496;DHT22;9888;48.606;9.630;2023-03-01T08:45:21;6.80;99.90
19496;DHT22;9888;48.606;9.630;2023-03-01T08:47:47;7.60;99.90
19496;DHT22;9888;48.606;9.630;2023-03-01T08:50:19;8.20;99.90
19496;DHT22;9888;48.606;9.630;2023-03-01T08:52:46;8.40;99.90
19496;DHT22;9888;48.606;9.630;2023-03-01T08:55:13;9.20;99.90
19496;DHT22;9888;48.606;9.630;2023-03-01T08:57:42;10.20;99.90
19496;DHT22;9888;48.606;9.630;2023-03-01T09:00:10;11.30;99.90
19496;DHT22;9888;48.606;9.630;2023-03-01T09:02:38;11.80;99.90
19496;DHT22;9888;48.606;9.630;2023-03-01T09:05:05;11.90;99.90
19496;DHT22;9888;48.606;9.630;2023-03-01T09:07:32;12.20;99.90
19496;DHT22;9888;48.606;9.630;2023-03-01T09:10:00;12.00;99.90
19496;DHT22;9888;48.606;9.630;2023-03-01T09:12:27;11.80;99.90
19496;DHT22;9888;48.606;9.630;2023-03-01T09:14:54;11.00;99.90
19496;DHT22;9888;48.606;9.630;2023-03-01T09:17:44;9.60;99.90
19496;DHT22;9888;48.606;9.630;2023-03-01T09:20:14;10.40;99.90
19496;DHT22;9888;48.606;9.630;2023-03-01T09:22:41;10.80;99.90
19496;DHT22;9888;48.606;9.630;2023-03-01T09:25:08;11.10;99.90
19496;DHT22;9888;48.606;9.630;2023-03-01T09:27:36;11.80;99.90
19496;DHT22;9888;48.606;9.630;2023-03-01T09:30:03;13.00;99.90
19496;DHT22;9888;48.606;9.630;2023-03-01T09:32:33;13.70;99.50
19496;DHT22;9888;48.606;9.630;2023-03-01T09:35:02;13.90;97.70
19496;DHT22;9888;48.606;9.630;2023-03-01T09:37:33;13.20;97.30
19496;DHT22;9888;48.606;9.630;2023-03-01T09:40:02;14.20;97.70
19496;DHT22;9888;48.606;9.630;2023-03-01T09:42:33;14.50;96.40
19496;DHT22;9888;48.606;9.630;2023-03-01T09:45:10;14.30;94.80
19496;DHT22;9888;48.606;9.630;2023-03-01T09:47:42;13.40;94.90
19496;DHT22;9888;48.606;9.630;2023-03-01T09:50:19;14.60;96.50
19496;DHT22;9888;48.606;9.630;2023-03-01T09:53:15;14.50;94.40
19496;DHT22;9888;48.606;9.630;2023-03-01T09:59:13;12.60;95.00
19496;DHT22;9888;48.606;9.630;2023-03-01T10:01:52;13.70;94.80
19496;DHT22;9888;48.606;9.630;2023-03-01T10:04:29;14.40;94.60
19496;DHT22;9888;48.606;9.630;2023-03-01T10:09:43;14.40;92.40
19496;DHT22;9888;48.606;9.630;2023-03-01T10:12:19;14.50;93.20
19496;DHT22;9888;48.606;9.630;2023-03-01T10:15:15;15.20;93.10
19496;DHT22;9888;48.606;9.630;2023-03-01T10:17:56;15.80;92.00
19496;DHT22;9888;48.606;9.630;2023-03-01T10:23:51;16.50;92.30
19496;DHT22;9888;48.606;9.630;2023-03-01T10:26:32;17.00;91.60
19496;DHT22;9888;48.606;9.630;2023-03-01T10:29:10;17.50;91.30
19496;DHT22;9888;48.606;9.630;2023-03-01T10:31:50;17.20;91.60
19496;DHT22;9888;48.606;9.630;2023-03-01T10:34:31;17.00;90.70
19496;DHT22;9888;48.606;9.630;2023-03-01T10:37:17;17.30;90.70
19496;DHT22;9888;48.606;9.630;2023-03-01T10:40:03;16.20;90.40
19496;DHT22;9888;48.606;9.630;2023-03-01T10:43:01;16.00;90.10
19496;DHT22;9888;48.606;9.630;2023-03-01T10:45:36;16.50;90.50
19496;DHT22;9888;48.606;9.630;2023-03-01T10:48:18;17.20;90.30
19496;DHT22;9888;48.606;9.630;2023-03-01T10:50:47;17.70;88.40
19496;DHT22;9888;48.606;9.630;2023-03-01T10:53:35;17.80;89.20
19496;DHT22;9888;48.606;9.630;2023-03-01T10:58:35;15.40;87.40
19496;DHT22;9888;48.606;9.630;2023-03-01T11:03:44;15.80;89.40
19496;DHT22;9888;48.606;9.630;2023-03-01T11:06:20;16.00;89.90
19496;DHT22;9888;48.606;9.630;2023-03-01T11:08:49;15.80;88.70
19496;DHT22;9888;48.606;9.630;2023-03-01T11:11:23;16.10;90.40
19496;DHT22;9888;48.606;9.630;2023-03-01T11:14:06;16.60;88.30
19496;DHT22;9888;48.606;9.630;2023-03-01T11:16:38;17.10;90.20
19496;DHT22;9888;48.606;9.630;2023-03-01T11:21:47;17.90;86.50
19496;DHT22;9888;48.606;9.630;2023-03-01T11:24:22;18.10;85.60
19496;DHT22;9888;48.606;9.630;2023-03-01T11:26:56;18.90;85.20
19496;DHT22;9888;48.606;9.630;2023-03-01T11:29:37;19.20;84.20
19496;DHT22;9888;48.606;9.630;2023-03-01T11:32:09;19.10;83.30
19496;DHT22;9888;48.606;9.630;2023-03-01T11:35:47;18.60;81.90
19496;DHT22;9888;48.606;9.630;2023-03-01T11:44:14;18.60;83.10
19496;DHT22;9888;48.606;9.630;2023-03-01T11:47:11;18.90;81.00
19496;DHT22;9888;48.606;9.630;2023-03-01T11:50:02;18.80;81.70
19496;DHT22;9888;48.606;9.630;2023-03-01T12:00:55;20.00;81.60
19496;DHT22;9888;48.606;9.630;2023-03-01T12:03:30;21.10;79.10
19496;DHT22;9888;48.606;9.630;2023-03-01T12:12:25;22.10;77.00
19496;DHT22;9888;48.606;9.630;2023-03-01T12:18:22;21.90;76.20
19496;DHT22;9888;48.606;9.630;2023-03-01T12:29:49;22.80;76.70
19496;DHT22;9888;48.606;9.630;2023-03-01T12:32:47;23.00;76.00
19496;DHT22;9888;48.606;9.630;2023-03-01T12:41:04;22.90;72.20
19496;DHT22;9888;48.606;9.630;2023-03-01T12:47:01;22.80;73.30
19496;DHT22;9888;48.606;9.630;2023-03-01T12:49:57;22.10;70.80
19496;DHT22;9888;48.606;9.630;2023-03-01T12:52:44;22.50;74.60
19496;DHT22;9888;48.606;9.630;2023-03-01T12:55:29;22.40;73.20
19496;DHT22;9888;48.606;9.630;2023-03-01T13:01:21;22.70;74.50
19496;DHT22;9888;48.606;9.630;2023-03-01T22:11:11;-0.80;99.90
19496;DHT22;9888;48.606;9.630;2023-03-01T22:13:39;-0.70;99.90
19496;DHT22;9888;48.606;9.630;2023-03-01T22:16:07;-0.60;99.90
19496;DHT22;9888;48.606;9.630;2023-03-01T22:18:34;-0.60;99.90
19496;DHT22;9888;48.606;9.630;2023-03-01T22:21:04;-0.60;99.90
19496;DHT22;9888;48.606;9.630;2023-03-01T22:23:32;-0.50;99.90
19496;DHT22;9888;48.606;9.630;2023-03-01T22:25:59;-0.30;99.90
19496;DHT22;9888;48.606;9.630;2023-03-01T22:28:27;-0.20;99.90
19496;DHT22;9888;48.606;9.630;2023-03-01T22:30:55;-0.20;99.90
19496;DHT22;9888;48.606;9.630;2023-03-01T22:33:22;-0.20;99.90
19496;DHT22;9888;48.606;9.630;2023-03-01T22:35:50;-0.40;99.90
19496;DHT22;9888;48.606;9.630;2023-03-01T22:38:20;-0.40;99.90
19496;DHT22;9888;48.606;9.630;2023-03-01T22:40:58;-0.40;99.90
19496;DHT22;9888;48.606;9.630;2023-03-01T22:43:25;-0.40;99.90
19496;DHT22;9888;48.606;9.630;2023-03-01T22:45:52;-0.30;99.90
19496;DHT22;9888;48.606;9.630;2023-03-01T22:48:19;-0.20;99.90
19496;DHT22;9888;48.606;9.630;2023-03-01T22:50:47;-0.20;99.90
19496;DHT22;9888;48.606;9.630;2023-03-01T22:53:14;-0.10;99.90
19496;DHT22;9888;48.606;9.630;2023-03-01T22:55:42;-0.10;99.90
19496;DHT22;9888;48.606;9.630;2023-03-01T22:58:09;0.00;99.90
19496;DHT22;9888;48.606;9.630;2023-03-01T23:00:36;0.00;99.90
19496;DHT22;9888;48.606;9.630;2023-03-01T23:03:02;-0.10;99.90
19496;DHT22;9888;48.606;9.630;2023-03-01T23:05:29;-0.10;99.90
19496;DHT22;9888;48.606;9.630;2023-03-01T23:07:56;-0.10;99.90
19496;DHT22;9888;48.606;9.630;2023-03-01T23:10:24;-0.10;99.90
19496;DHT22;9888;48.606;9.630;2023-03-01T23:12:54;-0.10;99.90
19496;DHT22;9888;48.606;9.630;2023-03-01T23:15:20;0.00;99.90
19496;DHT22;9888;48.606;9.630;2023-03-01T23:17:47;0.10;99.90
19496;DHT22;9888;48.606;9.630;2023-03-01T23:20:15;0.10;99.90
19496;DHT22;9888;48.606;9.630;2023-03-01T23:22:43;0.20;99.90
19496;DHT22;9888;48.606;9.630;2023-03-01T23:25:10;0.30;99.90
19496;DHT22;9888;48.606;9.630;2023-03-01T23:27:39;0.30;99.90
19496;DHT22;9888;48.606;9.630;2023-03-01T23:30:07;0.40;99.90
19496;DHT22;9888;48.606;9.630;2023-03-01T23:32:34;0.50;99.90
19496;DHT22;9888;48.606;9.630;2023-03-01T23:35:07;0.50;99.90
19496;DHT22;9888;48.606;9.630;2023-03-01T23:38:01;0.60;99.90
19496;DHT22;9888;48.606;9.630;2023-03-01T23:40:28;0.60;99.90
19496;DHT22;9888;48.606;9.630;2023-03-01T23:42:55;0.60;99.90
19496;DHT22;9888;48.606;9.630;2023-03-01T23:45:22;0.70;99.90
19496;DHT22;9888;48.606;9.630;2023-03-01T23:47:48;0.70;99.90
19496;DHT22;9888;48.606;9.630;2023-03-01T23:50:15;0.70;99.90
19496;DHT22;9888;48.606;9.630;2023-03-01T23:52:42;0.60;99.90
19496;DHT22;9888;48.606;9.630;2023-03-01T23:55:10;0.60;99.90
19496;DHT22;9888;48.606;9.630;2023-03-01T23:57:38;0.50;99.90
